Time;durP1;ratioP1;P1;durP2;ratioP2;P2;SDS_P1;SDS_P2;PMS_P1;PMS_P2;Temp;Humidity;BMP_temperature;BMP_pressure;BME280_temperature;BME280_humidity;BME280_pressure;Samples;Min_cycle;Max_cycle;Signal;HPM_P1;HPM_P2
2023/02/04 00:00:44;;;;;;;0.10;0.10;;;9.20;99.90;;;;;;5064379;28;20361;-81
2023/02/04 00:03:10;;;;;;;0.10;0.10;;;9.20;99.90;;;;;;5064685;28;20181;-80
2023/02/04 00:05:36;;;;;;;0.10;0.10;;;9.10;99.90;;;;;;5065696;28;20208;-81
2023/02/04 00:08:02;;;;;;;0.07;0.07;;;9.10;99.90;;;;;;5065983;28;20253;-81
2023/02/04 00:10:28;;;;;;;0.10;0.10;;;9.00;99.90;;;;;;5065541;28;20238;-81
2023/02/04 00:12:53;;;;;;;0.10;0.10;;;9.00;99.90;;;;;;5064073;28;20184;-82
2023/02/04 00:15:19;;;;;;;0.10;0.10;;;9.00;99.90;;;;;;5064280;28;20650;-80
2023/02/04 00:17:44;;;;;;;0.10;0.10;;;9.10;99.90;;;;;;5064289;28;20183;-82
2023/02/04 00:20:10;;;;;;;0.10;0.10;;;9.00;99.90;;;;;;5064527;28;20212;-80
2023/02/04 00:22:36;;;;;;;0.10;0.10;;;9.10;99.90;;;;;;5073280;28;20250;-80
2023/02/04 00:25:01;;;;;;;0.10;0.10;;;9.00;99.90;;;;;;5064880;28;20222;-81
2023/02/04 00:27:27;;;;;;;0.10;0.10;;;9.00;99.90;;;;;;5065739;28;20275;-81
2023/02/04 00:29:53;;;;;;;0.10;0.10;;;9.00;99.90;;;;;;5065703;28;20654;-81
2023/02/04 00:32:18;;;;;;;0.10;0.10;;;9.00;99.90;;;;;;5064384;28;20174;-81
2023/02/04 00:34:44;;;;;;;0.10;0.10;;;9.00;99.90;;;;;;5065197;28;20267;-80
2023/02/04 00:37:09;;;;;;;0.10;0.10;;;9.00;99.90;;;;;;5063940;28;20192;-80
2023/02/04 00:39:35;;;;;;;0.10;0.10;;;9.00;99.90;;;;;;5065309;28;20720;-81
2023/02/04 00:42:00;;;;;;;0.10;0.10;;;8.90;99.90;;;;;;5065355;28;20250;-81
2023/02/04 00:44:26;;;;;;;0.10;0.10;;;9.00;99.90;;;;;;5063470;28;20242;-81
2023/02/04 00:46:51;;;;;;;0.10;0.10;;;9.00;99.90;;;;;;5065372;28;20188;-81
2023/02/04 00:49:17;;;;;;;0.10;0.10;;;9.00;99.90;;;;;;5064371;28;20217;-81
2023/02/04 00:51:45;;;;;;;0.10;0.10;;;8.90;99.90;;;;;;5064856;28;20216;-81
2023/02/04 00:54:11;;;;;;;0.10;0.10;;;8.80;99.90;;;;;;5062686;28;20650;-81
2023/02/04 00:56:36;;;;;;;0.10;0.10;;;8.80;99.90;;;;;;5065191;28;20197;-81
2023/02/04 00:59:02;;;;;;;0.10;0.10;;;8.80;99.90;;;;;;5064823;28;20409;-80
2023/02/04 01:01:28;;;;;;;0.10;0.10;;;8.90;99.90;;;;;;5063787;28;20269;-81
2023/02/04 01:03:53;;;;;;;0.10;0.10;;;8.80;99.90;;;;;;5063474;28;20201;-81
2023/02/04 01:06:19;;;;;;;0.00;0.00;;;8.90;99.90;;;;;;5063979;28;20250;-80
2023/02/04 01:08:44;;;;;;;0.10;0.10;;;8.80;99.90;;;;;;5063373;28;20190;-81
2023/02/04 01:11:10;;;;;;;0.10;0.10;;;8.70;99.90;;;;;;5068759;28;20543;-81
2023/02/04 01:13:35;;;;;;;0.10;0.10;;;8.70;99.90;;;;;;5069014;28;20194;-81
2023/02/04 01:16:01;;;;;;;0.10;0.10;;;8.70;99.90;;;;;;5068790;28;20890;-82
2023/02/04 01:18:26;;;;;;;0.10;0.10;;;8.70;99.90;;;;;;5067931;28;20188;-81
2023/02/04 01:20:52;;;;;;;0.10;0.10;;;8.80;99.90;;;;;;5066918;28;20235;-81
2023/02/04 01:23:17;;;;;;;0.10;0.10;;;8.80;99.90;;;;;;5067373;28;20202;-80
2023/02/04 01:25:43;;;;;;;0.10;0.10;;;8.80;99.90;;;;;;5068096;28;21420;-82
2023/02/04 01:28:08;;;;;;;0.10;0.10;;;8.70;99.90;;;;;;5067844;28;20234;-81
2023/02/04 01:30:34;;;;;;;0.10;0.10;;;8.70;99.90;;;;;;5067927;28;20283;-81
2023/02/04 01:32:59;;;;;;;0.10;0.10;;;8.60;99.90;;;;;;5067415;28;20632;-81
2023/02/04 01:35:25;;;;;;;0.10;0.10;;;8.60;99.90;;;;;;5067928;28;20184;-81
2023/02/04 01:37:51;;;;;;;0.00;0.00;;;8.70;99.90;;;;;;5067082;28;20578;-81
2023/02/04 01:40:16;;;;;;;0.10;0.10;;;8.60;99.90;;;;;;5067353;28;20200;-81
2023/02/04 01:42:42;;;;;;;0.10;0.10;;;8.60;99.90;;;;;;5066912;28;20181;-81
2023/02/04 01:45:08;;;;;;;0.10;0.10;;;8.60;99.90;;;;;;5066387;28;20295;-80
2023/02/04 01:47:34;;;;;;;0.10;0.10;;;8.60;99.90;;;;;;5066417;28;20658;-81
2023/02/04 01:50:00;;;;;;;0.07;0.07;;;8.50;99.90;;;;;;5068720;28;20203;-81
2023/02/04 01:52:36;;;;;;;0.10;0.10;;;8.50;99.90;;;;;;5067131;28;20238;-82
2023/02/04 01:55:03;;;;;;;0.00;0.00;;;8.60;99.90;;;;;;5066582;28;20268;-82
2023/02/04 01:57:28;;;;;;;0.10;0.10;;;8.60;99.90;;;;;;5066476;28;20733;-81
2023/02/04 01:59:55;;;;;;;0.10;0.10;;;8.60;99.90;;;;;;5066936;28;20176;-81
2023/02/04 02:02:41;;;;;;;0.10;0.10;;;8.60;99.90;;;;;;5068028;28;20187;-82
2023/02/04 02:05:09;;;;;;;0.10;0.10;;;8.60;99.90;;;;;;5066230;28;20551;-81
2023/02/04 02:07:35;;;;;;;0.10;0.10;;;8.50;99.90;;;;;;5065792;28;20260;-82
2023/02/04 02:10:02;;;;;;;0.10;0.10;;;8.60;99.90;;;;;;5066878;28;20761;-80
2023/02/04 02:12:28;;;;;;;0.10;0.10;;;8.60;99.90;;;;;;5067916;28;20202;-81
2023/02/04 02:14:54;;;;;;;1.70;1.70;;;8.50;99.90;;;;;;5068190;28;20207;-81
2023/02/04 02:17:19;;;;;;;0.10;0.10;;;8.50;99.90;;;;;;5066732;28;20715;-81
2023/02/04 02:19:45;;;;;;;0.10;0.10;;;8.50;99.90;;;;;;5066347;28;20188;-82
2023/02/04 02:22:14;;;;;;;0.10;0.10;;;8.50;99.90;;;;;;5066028;28;20238;-81
2023/02/04 02:24:39;;;;;;;0.10;0.10;;;8.60;99.90;;;;;;5065654;28;20204;-81
2023/02/04 02:27:08;;;;;;;0.10;0.10;;;8.60;99.90;;;;;;5066323;28;20206;-81
2023/02/04 02:29:35;;;;;;;0.10;0.10;;;8.50;99.90;;;;;;5066628;28;20195;-82
2023/02/04 02:32:01;;;;;;;0.10;0.10;;;8.50;99.90;;;;;;5066133;28;20204;-81
2023/02/04 02:34:28;;;;;;;0.10;0.10;;;8.40;99.90;;;;;;5067422;28;20185;-81
2023/02/04 02:36:54;;;;;;;0.10;0.10;;;8.40;99.90;;;;;;5067068;28;20203;-82
2023/02/04 02:39:20;;;;;;;0.10;0.10;;;8.30;99.90;;;;;;5066673;28;20249;-81
2023/02/04 02:41:46;;;;;;;0.10;0.10;;;8.30;99.90;;;;;;5066109;28;20556;-81
2023/02/04 02:44:14;;;;;;;0.10;0.10;;;8.30;99.90;;;;;;5067465;28;20269;-80
2023/02/04 02:46:40;;;;;;;0.10;0.10;;;8.30;99.90;;;;;;5065697;28;20212;-80
2023/02/04 02:49:11;;;;;;;0.00;0.00;;;8.30;99.90;;;;;;5068036;28;20220;-81
2023/02/04 02:51:36;;;;;;;0.10;0.10;;;8.40;99.90;;;;;;5066497;28;20567;-81
2023/02/04 02:54:02;;;;;;;0.10;0.10;;;8.30;99.90;;;;;;5066935;28;20185;-82
2023/02/04 02:56:27;;;;;;;0.07;0.07;;;8.40;99.90;;;;;;5065852;28;20722;-81
2023/02/04 02:58:53;;;;;;;0.10;0.10;;;8.30;99.90;;;;;;5065713;28;20578;-81
2023/02/04 03:01:18;;;;;;;0.10;0.10;;;8.20;99.90;;;;;;5066894;28;20276;-81
2023/02/04 03:03:50;;;;;;;0.00;0.00;;;8.10;99.90;;;;;;5065685;28;20202;-81
2023/02/04 03:06:22;;;;;;;0.10;0.10;;;8.20;99.90;;;;;;5064769;28;20649;-81
2023/02/04 03:08:51;;;;;;;0.00;0.00;;;8.30;99.90;;;;;;5066802;28;20181;-81
2023/02/04 03:11:17;;;;;;;0.03;0.03;;;8.30;99.90;;;;;;5066408;28;20259;-81
2023/02/04 03:13:42;;;;;;;0.10;0.10;;;8.30;99.90;;;;;;5065881;28;20181;-81
2023/02/04 03:16:08;;;;;;;0.07;0.07;;;8.30;99.90;;;;;;5065487;28;20180;-81
2023/02/04 03:18:35;;;;;;;0.10;0.10;;;8.40;99.90;;;;;;5067055;28;20328;-80
2023/02/04 03:21:03;;;;;;;0.10;0.10;;;8.30;99.90;;;;;;5065206;28;20456;-81
2023/02/04 03:23:32;;;;;;;0.10;0.10;;;8.30;99.90;;;;;;5065613;28;20229;-81
2023/02/04 03:25:57;;;;;;;0.10;0.10;;;8.30;99.90;;;;;;5074718;28;20176;-80
2023/02/04 03:28:23;;;;;;;0.10;0.10;;;8.30;99.90;;;;;;5064986;28;20189;-81
2023/02/04 03:30:52;;;;;;;0.10;0.10;;;8.20;99.90;;;;;;5064239;28;20198;-81
2023/02/04 03:33:18;;;;;;;0.10;0.10;;;8.20;99.90;;;;;;5065944;28;20186;-81
2023/02/04 03:35:43;;;;;;;0.10;0.10;;;8.20;99.90;;;;;;5066165;28;20678;-81
2023/02/04 03:38:09;;;;;;;0.10;0.10;;;8.20;99.90;;;;;;5064988;28;20187;-81
2023/02/04 03:40:34;;;;;;;0.10;0.10;;;8.30;99.90;;;;;;5065936;28;20561;-81
2023/02/04 03:43:00;;;;;;;0.10;0.10;;;8.30;99.90;;;;;;5064868;28;20197;-82
2023/02/04 03:45:25;;;;;;;0.10;0.10;;;8.30;99.90;;;;;;5064891;28;20203;-81
2023/02/04 03:47:51;;;;;;;0.10;0.10;;;8.00;99.90;;;;;;5073243;28;20187;-81
2023/02/04 03:50:16;;;;;;;0.10;0.10;;;8.10;99.90;;;;;;5065169;28;20595;-81
2023/02/04 03:52:43;;;;;;;0.10;0.10;;;8.00;99.90;;;;;;5064499;28;20234;-80
2023/02/04 03:55:09;;;;;;;0.10;0.10;;;8.10;99.90;;;;;;5064204;28;20555;-80
2023/02/04 03:57:34;;;;;;;0.10;0.10;;;8.10;99.90;;;;;;5066122;28;20188;-81
2023/02/04 04:00:00;;;;;;;0.00;0.00;;;8.20;99.90;;;;;;5066085;28;20297;-81
2023/02/04 04:02:25;;;;;;;0.10;0.10;;;8.10;99.90;;;;;;5064796;28;20193;-82
2023/02/04 04:04:51;;;;;;;0.10;0.10;;;8.10;99.90;;;;;;5064718;28;20208;-81
2023/02/04 04:07:16;;;;;;;0.10;0.10;;;7.90;99.90;;;;;;5064578;28;20193;-81
2023/02/04 04:09:42;;;;;;;0.10;0.10;;;8.00;99.90;;;;;;5064720;28;20202;-81
2023/02/04 04:12:07;;;;;;;0.00;0.00;;;7.90;99.90;;;;;;5066115;28;20600;-81
2023/02/04 04:14:33;;;;;;;0.10;0.10;;;7.80;99.90;;;;;;5066054;28;20706;-80
2023/02/04 04:16:58;;;;;;;0.10;0.10;;;7.80;99.90;;;;;;5064344;28;20194;-81
2023/02/04 04:19:24;;;;;;;0.10;0.10;;;7.90;99.90;;;;;;5066307;28;20187;-81
2023/02/04 04:21:49;;;;;;;0.10;0.10;;;8.00;99.90;;;;;;5065193;28;20714;-80
2023/02/04 04:24:15;;;;;;;0.10;0.10;;;8.10;99.90;;;;;;5066065;28;20205;-81
2023/02/04 04:26:40;;;;;;;0.10;0.10;;;8.10;99.90;;;;;;5065563;28;20187;-81
2023/02/04 04:29:06;;;;;;;0.10;0.10;;;7.90;99.90;;;;;;5066409;28;20189;-81
2023/02/04 04:31:31;;;;;;;0.10;0.10;;;7.90;99.90;;;;;;5063896;28;20210;-81
2023/02/04 04:33:57;;;;;;;0.10;0.10;;;7.90;99.90;;;;;;5065836;28;20184;-81
2023/02/04 04:36:22;;;;;;;0.10;0.10;;;7.90;99.90;;;;;;5063864;28;20187;-81
2023/02/04 04:38:48;;;;;;;0.10;0.10;;;7.90;99.90;;;;;;5065072;28;20557;-81
2023/02/04 04:41:13;;;;;;;0.07;0.07;;;7.90;99.90;;;;;;5064029;28;20196;-81
2023/02/04 04:43:39;;;;;;;0.10;0.10;;;7.70;99.90;;;;;;5063652;28;20180;-81
2023/02/04 04:46:04;;;;;;;0.10;0.10;;;7.60;99.90;;;;;;5064274;28;20192;-81
2023/02/04 04:48:30;;;;;;;0.10;0.10;;;7.60;99.90;;;;;;5064668;28;20184;-81
2023/02/04 04:50:57;;;;;;;0.03;0.03;;;7.60;99.90;;;;;;5065739;28;20204;-81
2023/02/04 04:53:22;;;;;;;0.10;0.10;;;7.60;99.90;;;;;;5064547;28;20531;-81
2023/02/04 04:55:48;;;;;;;0.10;0.10;;;7.60;99.90;;;;;;5063553;28;20274;-81
2023/02/04 04:58:13;;;;;;;0.10;0.10;;;7.60;99.90;;;;;;5064271;28;20184;-81
2023/02/04 05:00:40;;;;;;;0.10;0.10;;;7.70;99.90;;;;;;5064135;28;20568;-81
2023/02/04 05:03:05;;;;;;;0.10;0.10;;;7.70;99.90;;;;;;5064820;28;20184;-82
2023/02/04 05:05:32;;;;;;;0.00;0.00;;;7.70;99.90;;;;;;5065885;28;20215;-81
2023/02/04 05:07:58;;;;;;;0.10;0.10;;;7.80;99.90;;;;;;5063891;28;20182;-80
2023/02/04 05:10:24;;;;;;;0.10;0.10;;;7.70;99.90;;;;;;5065250;28;20211;-81
2023/02/04 05:12:49;;;;;;;0.10;0.10;;;7.70;99.90;;;;;;5063999;28;20180;-80
2023/02/04 05:15:15;;;;;;;0.10;0.10;;;7.70;99.90;;;;;;5063356;28;20189;-80
2023/02/04 05:17:40;;;;;;;0.10;0.10;;;7.70;99.90;;;;;;5064367;28;20191;-81
2023/02/04 05:20:07;;;;;;;0.10;0.10;;;7.60;99.90;;;;;;5064428;28;20214;-81
2023/02/04 05:22:32;;;;;;;0.10;0.10;;;7.60;99.90;;;;;;5065689;28;20186;-81
2023/02/04 05:24:58;;;;;;;0.10;0.10;;;7.70;99.90;;;;;;5064868;28;20199;-80
2023/02/04 05:27:23;;;;;;;0.10;0.10;;;7.50;99.90;;;;;;5065635;28;20303;-81
2023/02/04 05:29:49;;;;;;;0.00;0.00;;;7.50;99.90;;;;;;5064034;28;20201;-81
2023/02/04 05:32:14;;;;;;;0.10;0.10;;;7.40;99.90;;;;;;5064287;28;20444;-81
2023/02/04 05:34:40;;;;;;;0.10;0.10;;;7.50;99.90;;;;;;5064113;28;20228;-81
2023/02/04 05:37:05;;;;;;;0.10;0.10;;;7.50;99.90;;;;;;5063977;28;20240;-81
2023/02/04 05:39:31;;;;;;;0.10;0.10;;;7.40;99.90;;;;;;5065600;28;20185;-81
2023/02/04 05:41:56;;;;;;;0.10;0.10;;;7.30;99.90;;;;;;5066944;28;20217;-80
2023/02/04 05:44:22;;;;;;;0.10;0.10;;;7.30;99.90;;;;;;5066744;28;20222;-81
2023/02/04 05:46:47;;;;;;;0.10;0.10;;;7.30;99.90;;;;;;5063413;28;20194;-79
2023/02/04 05:49:13;;;;;;;0.10;0.10;;;7.30;99.90;;;;;;5065317;28;20190;-81
2023/02/04 05:51:39;;;;;;;0.10;0.10;;;7.30;99.90;;;;;;5071794;28;20234;-81
2023/02/04 05:54:05;;;;;;;0.10;0.10;;;7.30;99.90;;;;;;5064228;28;20273;-81
2023/02/04 05:56:30;;;;;;;0.00;0.00;;;7.20;99.90;;;;;;5067047;28;20621;-82
2023/02/04 05:58:56;;;;;;;0.10;0.10;;;7.20;99.90;;;;;;5068657;28;20190;-81
2023/02/04 06:01:22;;;;;;;0.10;0.10;;;7.20;99.90;;;;;;5066765;28;20293;-81
2023/02/04 06:03:48;;;;;;;0.10;0.10;;;7.20;99.90;;;;;;5066530;28;20606;-81
2023/02/04 06:06:13;;;;;;;0.10;0.10;;;7.20;99.90;;;;;;5068431;28;20185;-82
2023/02/04 06:08:39;;;;;;;0.10;0.10;;;7.20;99.90;;;;;;5067041;28;20260;-81
2023/02/04 06:11:04;;;;;;;0.10;0.10;;;7.20;99.90;;;;;;5067224;28;20197;-81
2023/02/04 06:13:30;;;;;;;0.10;0.10;;;7.20;99.90;;;;;;5066941;28;20660;-81
2023/02/04 06:15:55;;;;;;;0.10;0.10;;;7.20;99.90;;;;;;5066769;28;20549;-80
2023/02/04 06:18:21;;;;;;;0.10;0.10;;;7.30;99.90;;;;;;5067027;28;20657;-81
2023/02/04 06:20:47;;;;;;;0.10;0.10;;;7.30;99.90;;;;;;5068217;28;20209;-81
2023/02/04 06:23:12;;;;;;;0.10;0.10;;;7.20;99.90;;;;;;5068605;28;20190;-81
2023/02/04 06:25:37;;;;;;;0.10;0.10;;;7.30;99.90;;;;;;5067101;28;20260;-81
2023/02/04 06:28:03;;;;;;;0.10;0.10;;;7.30;99.90;;;;;;5066564;28;20190;-81
2023/02/04 06:30:29;;;;;;;0.10;0.10;;;7.30;99.90;;;;;;5067815;28;20570;-80
2023/02/04 06:32:54;;;;;;;0.10;0.10;;;7.20;99.90;;;;;;5067425;28;20212;-80
2023/02/04 06:35:20;;;;;;;0.10;0.10;;;7.20;99.90;;;;;;5067319;28;20266;-81
2023/02/04 06:37:46;;;;;;;0.10;0.10;;;7.20;99.90;;;;;;5068035;28;20217;-81
2023/02/04 06:40:12;;;;;;;0.10;0.10;;;7.30;99.90;;;;;;5066621;28;21376;-82
2023/02/04 06:42:37;;;;;;;0.10;0.10;;;7.20;99.90;;;;;;5067763;28;20195;-81
2023/02/04 06:45:04;;;;;;;0.10;0.10;;;7.20;99.90;;;;;;5067896;28;20216;-82
2023/02/04 06:47:29;;;;;;;0.00;0.00;;;7.30;99.90;;;;;;5067107;28;20325;-81
2023/02/04 06:49:55;;;;;;;0.00;0.00;;;7.30;99.90;;;;;;5066883;28;20648;-81
2023/02/04 06:52:20;;;;;;;0.10;0.10;;;7.40;99.90;;;;;;5066786;28;20189;-80
2023/02/04 06:54:46;;;;;;;0.10;0.10;;;7.40;99.90;;;;;;5067149;28;20202;-80
2023/02/04 06:57:11;;;;;;;0.10;0.10;;;7.50;99.90;;;;;;5067295;28;20191;-80
2023/02/04 06:59:39;;;;;;;0.10;0.10;;;7.50;99.90;;;;;;5066979;28;20660;-80
2023/02/04 07:02:06;;;;;;;0.10;0.10;;;7.50;99.90;;;;;;5067472;28;20204;-81
2023/02/04 07:04:32;;;;;;;0.10;0.10;;;7.50;99.90;;;;;;5067973;28;20347;-81
2023/02/04 07:06:58;;;;;;;0.03;0.03;;;7.60;99.90;;;;;;5067098;28;20173;-81
2023/02/04 07:09:24;;;;;;;0.10;0.10;;;7.60;99.90;;;;;;5067086;28;20186;-81
2023/02/04 07:11:49;;;;;;;0.00;0.00;;;7.70;99.90;;;;;;5067185;28;20206;-81
2023/02/04 07:14:15;;;;;;;0.10;0.10;;;7.80;99.90;;;;;;5068321;28;20520;-81
2023/02/04 07:16:40;;;;;;;0.10;0.10;;;7.80;99.90;;;;;;5066531;28;21155;-81
2023/02/04 07:19:06;;;;;;;0.10;0.10;;;7.80;99.90;;;;;;5068290;28;20176;-81
2023/02/04 07:21:32;;;;;;;0.10;0.10;;;7.70;99.90;;;;;;5066915;28;20222;-80
2023/02/04 07:23:57;;;;;;;0.10;0.10;;;7.60;99.90;;;;;;5068254;28;20176;-80
2023/02/04 07:26:23;;;;;;;0.10;0.10;;;7.70;99.90;;;;;;5068069;28;20184;-80
2023/02/04 07:28:48;;;;;;;0.10;0.10;;;7.70;99.90;;;;;;5066259;28;20186;-80
2023/02/04 07:31:14;;;;;;;0.10;0.10;;;7.80;99.90;;;;;;5067562;28;20203;-80
2023/02/04 07:33:40;;;;;;;0.07;0.07;;;7.80;99.90;;;;;;5066820;28;20550;-81
2023/02/04 07:36:06;;;;;;;0.10;0.10;;;7.70;99.90;;;;;;5067831;28;20188;-81
2023/02/04 07:38:31;;;;;;;0.10;0.10;;;7.80;99.90;;;;;;5068113;28;20333;-81
2023/02/04 07:40:57;;;;;;;0.10;0.10;;;7.90;99.90;;;;;;5065949;28;20314;-80
2023/02/04 07:43:23;;;;;;;0.10;0.10;;;8.00;99.90;;;;;;5066968;28;20243;-81
2023/02/04 07:45:48;;;;;;;0.10;0.10;;;8.10;99.90;;;;;;5068790;28;20204;-80
2023/02/04 07:48:14;;;;;;;0.10;0.10;;;8.20;99.90;;;;;;5069828;28;20184;-81
2023/02/04 07:50:39;;;;;;;0.10;0.10;;;8.30;99.90;;;;;;5065424;28;20357;-80
2023/02/04 07:53:05;;;;;;;0.10;0.10;;;8.40;99.90;;;;;;5067773;28;20182;-80
2023/02/04 07:55:31;;;;;;;0.10;0.10;;;8.20;99.90;;;;;;5065302;28;21094;-80
2023/02/04 07:57:56;;;;;;;0.10;0.10;;;8.20;99.90;;;;;;5067130;28;20189;-81
2023/02/04 08:00:22;;;;;;;0.10;0.10;;;8.30;99.90;;;;;;5066508;28;20318;-81
2023/02/04 08:02:48;;;;;;;0.10;0.10;;;8.30;99.90;;;;;;5068184;28;20260;-80
2023/02/04 08:05:13;;;;;;;0.10;0.10;;;8.30;99.90;;;;;;5067820;28;20204;-81
2023/02/04 08:07:40;;;;;;;0.10;0.10;;;8.50;99.90;;;;;;5070168;28;20729;-82
2023/02/04 08:10:07;;;;;;;0.10;0.10;;;8.50;99.90;;;;;;5069171;28;20290;-80
2023/02/04 08:12:33;;;;;;;0.10;0.10;;;8.30;99.90;;;;;;5068615;28;20188;-80
2023/02/04 08:15:00;;;;;;;0.10;0.10;;;8.50;99.90;;;;;;5068483;28;20190;-80
2023/02/04 08:17:25;;;;;;;0.10;0.10;;;8.40;99.90;;;;;;5068092;28;20273;-81
2023/02/04 08:19:51;;;;;;;0.10;0.10;;;8.20;99.90;;;;;;5068928;28;20260;-80
2023/02/04 08:22:16;;;;;;;0.10;0.10;;;8.30;99.90;;;;;;5068911;28;20193;-81
2023/02/04 08:24:42;;;;;;;0.10;0.10;;;8.30;99.90;;;;;;5067702;28;20209;-80
2023/02/04 08:27:08;;;;;;;0.07;0.07;;;8.10;99.90;;;;;;5067467;28;20512;-80
2023/02/04 08:29:33;;;;;;;0.10;0.10;;;8.10;99.90;;;;;;5066810;28;20200;-80
2023/02/04 08:31:59;;;;;;;0.10;0.10;;;8.20;99.90;;;;;;5066657;28;20487;-80
2023/02/04 08:34:24;;;;;;;0.10;0.10;;;8.30;99.90;;;;;;5067616;28;20184;-80
2023/02/04 08:36:50;;;;;;;0.07;0.07;;;8.50;99.90;;;;;;5066432;28;20185;-80
2023/02/04 08:39:15;;;;;;;0.10;0.10;;;8.50;99.90;;;;;;5067918;28;20274;-81
2023/02/04 08:41:41;;;;;;;0.10;0.10;;;8.40;99.90;;;;;;5067180;28;20278;-80
2023/02/04 08:44:06;;;;;;;0.10;0.10;;;8.30;99.90;;;;;;5065873;28;20208;-80
2023/02/04 08:46:32;;;;;;;0.10;0.10;;;8.50;99.90;;;;;;5066948;28;20189;-80
2023/02/04 08:48:57;;;;;;;0.10;0.10;;;8.50;99.90;;;;;;5065958;28;20182;-81
2023/02/04 08:51:23;;;;;;;0.10;0.10;;;8.50;99.90;;;;;;5065780;28;20205;-80
2023/02/04 08:53:48;;;;;;;0.00;0.00;;;8.70;99.90;;;;;;5065311;28;20193;-81
2023/02/04 08:56:19;;;;;;;0.10;0.10;;;8.60;99.90;;;;;;5066943;28;20184;-81
2023/02/04 08:58:45;;;;;;;0.10;0.10;;;8.80;99.90;;;;;;5066013;28;20551;-81
2023/02/04 09:01:11;;;;;;;0.10;0.10;;;8.60;99.90;;;;;;5065737;28;20220;-80
2023/02/04 09:03:37;;;;;;;0.10;0.10;;;8.80;99.90;;;;;;5064649;28;20453;-80
2023/02/04 09:06:03;;;;;;;0.10;0.10;;;8.90;99.90;;;;;;5065505;28;20255;-80
2023/02/04 09:08:29;;;;;;;0.10;0.10;;;8.90;99.90;;;;;;5065227;28;20241;-81
2023/02/04 09:10:54;;;;;;;0.10;0.10;;;9.10;99.90;;;;;;5066095;28;20199;-80
2023/02/04 09:13:20;;;;;;;0.10;0.10;;;9.20;99.90;;;;;;5065949;28;20732;-80
2023/02/04 09:15:45;;;;;;;0.00;0.00;;;9.10;99.90;;;;;;5065758;28;20186;-81
2023/02/04 09:18:15;;;;;;;0.10;0.10;;;8.60;99.90;;;;;;5066485;28;20189;-81
2023/02/04 09:20:42;;;;;;;0.10;0.10;;;8.40;99.90;;;;;;5065939;28;20257;-79
2023/02/04 09:23:10;;;;;;;0.10;0.10;;;8.40;99.90;;;;;;5064218;28;20177;-81
2023/02/04 09:25:37;;;;;;;0.10;0.10;;;8.60;99.90;;;;;;5065287;28;20580;-81
2023/02/04 09:28:03;;;;;;;0.10;0.10;;;8.70;99.90;;;;;;5065272;28;20184;-80
2023/02/04 09:30:28;;;;;;;0.10;0.10;;;8.90;99.90;;;;;;5067210;28;20198;-81
2023/02/04 09:32:54;;;;;;;0.00;0.00;;;9.00;99.90;;;;;;5070125;28;20183;-81
2023/02/04 09:35:19;;;;;;;0.10;0.10;;;9.10;99.90;;;;;;5069915;28;20271;-80
2023/02/04 09:37:45;;;;;;;0.10;0.10;;;9.10;99.90;;;;;;5069805;28;20309;-81
2023/02/04 09:40:16;;;;;;;0.10;0.10;;;9.10;99.90;;;;;;5069613;28;20586;-80
2023/02/04 09:42:48;;;;;;;0.10;0.10;;;9.20;99.90;;;;;;5068385;28;20220;-80
2023/02/04 09:45:18;;;;;;;0.10;0.10;;;9.40;99.90;;;;;;5068722;28;20220;-81
2023/02/04 09:47:44;;;;;;;0.10;0.10;;;9.50;99.90;;;;;;5069199;28;21150;-81
2023/02/04 09:50:18;;;;;;;0.10;0.10;;;9.50;99.90;;;;;;5068673;28;20204;-80
2023/02/04 09:52:45;;;;;;;0.10;0.10;;;9.70;99.90;;;;;;5075210;28;20695;-81
2023/02/04 09:55:17;;;;;;;0.10;0.10;;;9.80;99.90;;;;;;5069618;28;20181;-80
2023/02/04 09:57:42;;;;;;;0.10;0.10;;;9.90;99.90;;;;;;5067474;28;21042;-82
2023/02/04 10:00:23;;;;;;;0.07;0.07;;;9.90;99.90;;;;;;5068674;28;20219;-80
2023/02/04 10:02:49;;;;;;;0.00;0.00;;;9.90;99.90;;;;;;5068601;28;20192;-80
2023/02/04 10:05:17;;;;;;;0.10;0.10;;;9.40;99.90;;;;;;5068931;28;20681;-80
2023/02/04 10:07:44;;;;;;;0.10;0.10;;;9.40;99.90;;;;;;5069871;28;20233;-80
2023/02/04 10:10:17;;;;;;;0.10;0.10;;;9.30;99.90;;;;;;5069261;28;20205;-81
2023/02/04 10:12:43;;;;;;;0.10;0.10;;;9.20;99.90;;;;;;5069758;28;20696;-82
2023/02/04 10:15:18;;;;;;;0.10;0.10;;;9.20;99.90;;;;;;5068394;28;20377;-80
2023/02/04 10:17:48;;;;;;;0.10;0.10;;;9.30;99.90;;;;;;5069422;28;20259;-80
2023/02/04 10:20:22;;;;;;;0.00;0.00;;;9.20;99.90;;;;;;5068892;28;20204;-80
2023/02/04 10:22:50;;;;;;;0.10;0.10;;;9.00;99.90;;;;;;5068530;28;20184;-82
2023/02/04 10:25:19;;;;;;;0.10;0.10;;;8.90;99.90;;;;;;5069425;28;20208;-81
2023/02/04 10:27:54;;;;;;;0.10;0.10;;;9.00;99.90;;;;;;5067999;28;20687;-81
2023/02/04 10:30:32;;;;;;;0.10;0.10;;;9.30;99.90;;;;;;5068702;28;20713;-80
2023/02/04 10:32:58;;;;;;;0.10;0.10;;;9.30;99.90;;;;;;5067413;28;20184;-80
2023/02/04 10:35:24;;;;;;;0.10;0.10;;;9.20;99.90;;;;;;5068486;28;20192;-81
2023/02/04 10:38:05;;;;;;;0.10;0.10;;;9.10;99.90;;;;;;5067533;28;20192;-81
2023/02/04 10:40:32;;;;;;;0.10;0.10;;;9.40;99.90;;;;;;5066284;28;20205;-81
2023/02/04 10:42:59;;;;;;;0.00;0.00;;;9.30;99.90;;;;;;5066208;28;20184;-80
2023/02/04 10:45:28;;;;;;;0.10;0.10;;;9.30;99.90;;;;;;5067059;28;20337;-81
2023/02/04 10:47:55;;;;;;;0.10;0.10;;;9.10;99.90;;;;;;5067790;28;20177;-80
2023/02/04 10:50:23;;;;;;;0.10;0.10;;;9.30;99.90;;;;;;5068363;28;20205;-80
2023/02/04 10:52:54;;;;;;;0.10;0.10;;;9.30;99.90;;;;;;5078007;28;20680;-81
2023/02/04 10:55:22;;;;;;;0.10;0.10;;;9.30;99.90;;;;;;5069447;28;20263;-80
2023/02/04 10:57:50;;;;;;;0.10;0.10;;;9.40;99.90;;;;;;5068907;28;20751;-80
2023/02/04 11:00:20;;;;;;;0.10;0.10;;;9.50;99.90;;;;;;5077036;28;20263;-81
2023/02/04 11:03:03;;;;;;;0.10;0.10;;;9.70;99.90;;;;;;5067614;28;20230;-82
2023/02/04 11:05:31;;;;;;;0.10;0.10;;;9.50;99.90;;;;;;5067769;28;20196;-80
2023/02/04 11:07:57;;;;;;;0.10;0.10;;;9.00;99.90;;;;;;5068565;28;20227;-80
2023/02/04 11:10:29;;;;;;;0.10;0.10;;;8.90;99.90;;;;;;5069564;28;20204;-80
2023/02/04 11:12:55;;;;;;;0.00;0.00;;;8.80;99.90;;;;;;5068535;28;20172;-81
2023/02/04 11:15:35;;;;;;;0.10;0.10;;;8.70;99.90;;;;;;5069161;28;20196;-80
2023/02/04 11:18:07;;;;;;;0.10;0.10;;;8.80;99.90;;;;;;5069015;28;20181;-80
2023/02/04 11:20:35;;;;;;;0.10;0.10;;;8.70;99.90;;;;;;5068783;28;20209;-80
2023/02/04 11:23:36;;;;;;;0.10;0.10;;;8.70;99.90;;;;;;5068851;28;20184;-80
2023/02/04 11:26:16;;;;;;;0.10;0.10;;;8.70;99.90;;;;;;5069297;28;20206;-80
2023/02/04 11:28:58;;;;;;;0.10;0.10;;;9.00;99.90;;;;;;5068015;28;20180;-80
2023/02/04 11:31:24;;;;;;;0.10;0.10;;;9.30;99.90;;;;;;5067171;28;20199;-80
2023/02/04 11:34:07;;;;;;;0.10;0.10;;;9.10;99.90;;;;;;5068122;28;20187;-79
2023/02/04 11:36:34;;;;;;;0.00;0.00;;;9.20;99.90;;;;;;5067150;28;20177;-81
2023/02/04 11:39:13;;;;;;;0.10;0.10;;;9.40;99.90;;;;;;5069532;28;20653;-80
2023/02/04 11:41:39;;;;;;;0.10;0.10;;;9.60;99.90;;;;;;5067040;28;20506;-80
2023/02/04 11:44:04;;;;;;;0.10;0.10;;;9.80;99.90;;;;;;5067620;28;20281;-80
2023/02/04 11:46:30;;;;;;;0.10;0.10;;;9.90;99.90;;;;;;5066083;28;20202;-81
2023/02/04 11:48:57;;;;;;;0.10;0.10;;;10.20;99.90;;;;;;5067277;28;20180;-79
2023/02/04 11:51:30;;;;;;;0.10;0.10;;;10.50;99.90;;;;;;5065450;28;20200;-81
2023/02/04 11:53:55;;;;;;;0.10;0.10;;;10.70;99.90;;;;;;5068248;28;20255;-81
2023/02/04 11:56:22;;;;;;;0.10;0.10;;;10.80;99.90;;;;;;5068080;28;20714;-81
2023/02/04 11:58:48;;;;;;;0.10;0.10;;;10.70;99.90;;;;;;5066149;28;20177;-81
2023/02/04 12:01:24;;;;;;;0.10;0.10;;;10.70;99.90;;;;;;5066697;28;20213;-80
2023/02/04 12:04:01;;;;;;;0.10;0.10;;;10.40;99.90;;;;;;5067723;28;20176;-81
2023/02/04 12:06:29;;;;;;;0.10;0.10;;;10.30;99.90;;;;;;5067396;28;20361;-81
2023/02/04 12:09:06;;;;;;;0.10;0.10;;;10.30;99.90;;;;;;5067741;28;20177;-80
2023/02/04 12:11:32;;;;;;;0.00;0.00;;;10.40;99.90;;;;;;5068992;28;20228;-80
2023/02/04 12:14:06;;;;;;;0.10;0.10;;;10.60;99.90;;;;;;5068402;28;20208;-81
2023/02/04 12:16:46;;;;;;;0.10;0.10;;;10.70;99.90;;;;;;5064922;28;20246;-80
2023/02/04 12:19:12;;;;;;;0.00;0.00;;;10.10;99.90;;;;;;5066114;28;20196;-81
2023/02/04 12:21:38;;;;;;;0.00;0.00;;;9.40;99.90;;;;;;5064656;28;20285;-80
2023/02/04 12:24:04;;;;;;;0.10;0.10;;;9.70;99.90;;;;;;5063661;28;20182;-82
2023/02/04 12:26:29;;;;;;;0.10;0.10;;;10.20;99.90;;;;;;5064167;28;20177;-81
2023/02/04 12:28:55;;;;;;;0.10;0.10;;;10.80;99.90;;;;;;5064361;28;20585;-81
2023/02/04 12:31:20;;;;;;;0.10;0.10;;;11.00;99.90;;;;;;5065372;28;20223;-81
2023/02/04 12:33:46;;;;;;;0.10;0.10;;;11.20;99.90;;;;;;5065363;28;20547;-82
2023/02/04 12:36:12;;;;;;;0.10;0.10;;;11.40;99.90;;;;;;5065235;28;20189;-82
2023/02/04 12:38:37;;;;;;;0.10;0.10;;;11.40;99.90;;;;;;5065954;28;20634;-81
2023/02/04 12:41:03;;;;;;;0.10;0.10;;;11.50;99.90;;;;;;5067268;28;20246;-81
2023/02/04 12:43:28;;;;;;;0.10;0.10;;;10.60;99.90;;;;;;5067525;28;20189;-81
2023/02/04 12:45:54;;;;;;;0.10;0.10;;;11.00;99.90;;;;;;5066645;28;20204;-80
2023/02/04 12:48:19;;;;;;;0.10;0.10;;;11.40;99.90;;;;;;5068070;28;20375;-81
2023/02/04 12:50:45;;;;;;;0.10;0.10;;;11.90;99.90;;;;;;5066065;28;20258;-81
2023/02/04 12:53:10;;;;;;;0.10;0.10;;;12.10;99.90;;;;;;5065070;28;20188;-81